Flood From: 19-02-2018 06:00 Until: 20-02-2018 06:00 warning for: Flood Level: Yellow info button

Although rather usual in this region, locally or potentially dangerous phenomena are expected. (such as local winds, summer thunderstorms, rising streams or high waves) Be aware and pay attention to the latest weather updates, especially if you carry out activities exposed to weather or close to a stream or shoreline. 


Meteo18 Weather Cam more information Meteo18 Weather Cam


Thunder radar more information blitzortung!


Rain radar more information rain snow radar


Visit our other weather sites:

Template documentation
and downloads

And another site



Weather Underground History page Text

Daily Summary for May 18, 2016 Units:  Metric    English   Both
« Previous Day
Next Day »
Daily Weekly Monthly Yearly Custom
  High: Low: Average:
Temperature: -17.8 °C -11.6 °C -9.5 °C
Dew Point: -17.8 °C -12.4 °C -11.9 °C
Humidity: Humidity % 62 % 75 %
Wind Speed: 0 km/h 0 km/h 7.1 km/h
Wind Gust: 0 km/h - -
Wind:- - SW
Pressure: 0 hPa 34144.4 hPa -
Precipitation: 91.44 mm    
Historical Graphs
 
 
Tabular Data for May 18, 2016
Time Temperature Dew Point Pressure Wind Wind Speed Wind Gust Humidity Rainfall Rate (Hourly)
-17.8 °C -17.8 °C 0 hPa Calm     Humidity % 0 mm
08:17 -11.6 °C -12.2 °C 34293.4 hPa Calm     93 % 0 mm
08:22 -11.6 °C -12.2 °C 34303.6 hPa Calm     93 % 0 mm
08:27 -11.6 °C -12.2 °C 34293.4 hPa Calm     93 % 0 mm
08:32 -11.4 °C -12.1 °C 34293.4 hPa Calm     93 % 0 mm
08:37 -11.3 °C -12 °C 34293.4 hPa Calm     92 % 0 mm
08:42 -11.2 °C -11.9 °C 34293.4 hPa Calm     91 % 0 mm
08:52 -10.9 °C -11.8 °C 34293.4 hPa Calm     90 % 0 mm
10:17 -8.9 °C -11.6 °C 34279.9 hPa WSW 2.6 km/h 23.3 km/h 73 % 0 mm
10:22 -8.8 °C -11.2 °C 34279.9 hPa WSW 10.3 km/h 23.3 km/h 75 % 0 mm
10:27 -8.8 °C -11.1 °C 34279.9 hPa WSW 7.7 km/h 23.3 km/h 76 % 0 mm
10:32 -8.8 °C -11.4 °C 34279.9 hPa WSW 10.3 km/h 15.6 km/h 73 % 0 mm
10:37 -8.8 °C -11.2 °C 34279.9 hPa WSW 2.6 km/h 15.6 km/h 75 % 0 mm
10:42 -8.8 °C -11.2 °C 34279.9 hPa SSW 5.1 km/h 15.6 km/h 75 % 0 mm
10:47 -8.6 °C -10.9 °C 34269.7 hPa West 10.3 km/h 15.6 km/h 76 % 0 mm
10:52 -8.6 °C -11.5 °C 34279.9 hPa WSW 5.1 km/h 15.6 km/h 71 % 0 mm
10:57 -8.8 °C -11.9 °C 34269.7 hPa SSW 7.7 km/h 15.6 km/h 70 % 0 mm
11:02 -9 °C -11.9 °C 34269.7 hPa SW 7.7 km/h 20.8 km/h 71 % 0 mm
11:07 -9 °C -12.1 °C 34279.9 hPa WSW 5.1 km/h 20.8 km/h 70 % 0 mm
11:12 -9 °C -11.9 °C 34269.7 hPa West 7.7 km/h 20.8 km/h 71 % 0 mm
11:17 -8.8 °C -11.6 °C 34269.7 hPa Calm   18.2 km/h 72 % 0 mm
11:22 -8.6 °C -11.2 °C 34269.7 hPa West 5.1 km/h 15.6 km/h 74 % 0 mm
11:27 -8.3 °C -11.4 °C 34256.2 hPa West 10.3 km/h 15.6 km/h 70 % 0 mm
11:32 -8.2 °C -11.3 °C 34269.7 hPa SW 5.1 km/h 25.9 km/h 70 % 0 mm
11:37 -8.3 °C -11.3 °C 34256.2 hPa WSW 5.1 km/h 25.9 km/h 71 % 0 mm
11:42 -8.5 °C -11.7 °C 34256.2 hPa SW 12.9 km/h 25.9 km/h 69 % 0 mm
11:47 -8.4 °C -10.9 °C 34256.2 hPa WSW 10.3 km/h 23.3 km/h 75 % 0 mm
11:52 -8.4 °C -11.5 °C 34256.2 hPa SW 7.7 km/h 23.3 km/h 70 % 0 mm
11:57 -8.7 °C -11.7 °C 34256.2 hPa South 10.3 km/h 15.6 km/h 70 % 0 mm
12:02 -8.8 °C -11.7 °C 34256.2 hPa WSW 5.1 km/h 20.8 km/h 71 % 0 mm
12:07 -8.9 °C -11.6 °C 34256.2 hPa SW 12.9 km/h 20.8 km/h 73 % 0 mm
12:12 -9.1 °C -11.7 °C 34256.2 hPa SW 2.6 km/h 15.6 km/h 73 % 0 mm
12:17 -9.2 °C -11.6 °C 34256.2 hPa WSW 18.2 km/h 18.2 km/h 75 % 0 mm
12:22 -9.1 °C -11.6 °C 34256.2 hPa WSW 10.3 km/h 18.2 km/h 75 % 0 mm
12:27 -8.8 °C -11.6 °C 34256.2 hPa WSW 7.7 km/h 20.8 km/h 72 % 0 mm
12:32 -8.7 °C -11.7 °C 34256.2 hPa SW 7.7 km/h 20.8 km/h 71 % 0 mm
12:42 -8.7 °C -11.9 °C 34256.2 hPa SW 7.7 km/h 28.5 km/h 69 % 0 mm
12:47 -8.7 °C -11.8 °C 34256.2 hPa West 5.1 km/h 25.9 km/h 69 % 0 mm
12:52 -8.7 °C -11.8 °C 34246 hPa SSW 2.6 km/h 25.9 km/h 69 % 0 mm
12:57 -8.8 °C -12.1 °C 34246 hPa WSW 12.9 km/h 25.9 km/h 68 % 0 mm
13:02 -8.8 °C -12.2 °C 34246 hPa SW 7.7 km/h 25.9 km/h 67 % 0 mm
13:07 -9 °C -12.2 °C 34246 hPa SW 7.7 km/h 23.3 km/h 69 % 0 mm
13:12 -9 °C -12.1 °C 34246 hPa SW 2.6 km/h 20.8 km/h 70 % 0 mm
13:17 -8.9 °C -12.1 °C 34246 hPa SW 7.7 km/h 23.3 km/h 69 % 0 mm
13:22 -9.1 °C -12.2 °C 34246 hPa SW 5.1 km/h 23.3 km/h 69 % 0 mm
13:27 -9 °C -12.2 °C 34235.8 hPa SW 12.9 km/h 20.8 km/h 69 % 0 mm
13:32 -8.9 °C -12.1 °C 34235.8 hPa WSW 5.1 km/h 23.3 km/h 69 % 0 mm
13:42 -8.7 °C -12 °C 34235.8 hPa SW 7.7 km/h 23.3 km/h 68 % 0 mm
13:47 -8.7 °C -12.3 °C 34235.8 hPa SW 7.7 km/h 28.5 km/h 66 % 0 mm
13:52 -8.9 °C -12.4 °C 34235.8 hPa WSW 12.9 km/h 31.1 km/h 66 % 0 mm
13:57 -9 °C -12.4 °C 34235.8 hPa SW 10.3 km/h 31.1 km/h 67 % 0 mm
14:02 -8.9 °C -12.2 °C 34235.8 hPa SW 7.7 km/h 28.5 km/h 68 % 0 mm
14:07 -8.7 °C -12.1 °C 34235.8 hPa SW 15.6 km/h 25.9 km/h 67 % 0 mm
14:12 -8.4 °C -11.7 °C 34235.8 hPa Calm   31.1 km/h 68 % 0 mm
14:17 -8.1 °C -12.1 °C 34222.3 hPa SW 7.7 km/h 31.1 km/h 63 % 0 mm
14:22 -8.4 °C -12.3 °C 34222.3 hPa WSW 7.7 km/h 31.1 km/h 63 % 0 mm
14:32 -8.7 °C -12.1 °C 34222.3 hPa SW 7.7 km/h 23.3 km/h 67 % 0 mm
14:37 -8.7 °C -12.1 °C 34222.3 hPa SW 5.1 km/h 20.8 km/h 67 % 0 mm
14:42 -8.8 °C -12.2 °C 34222.3 hPa SW 7.7 km/h 25.9 km/h 67 % 0 mm
14:47 -8.9 °C -12.2 °C 34222.3 hPa WSW 10.3 km/h 25.9 km/h 68 % 0 mm
14:52 -9 °C -12.3 °C 34222.3 hPa WSW 7.7 km/h 25.9 km/h 68 % 0 mm
14:57 -9.1 °C -12.2 °C 34222.3 hPa SSW 5.1 km/h 23.3 km/h 69 % 0 mm
15:02 -9.1 °C -12.3 °C 34212.1 hPa WSW 10.3 km/h 23.3 km/h 68 % 0 mm
15:07 -8.9 °C -12.1 °C 34212.1 hPa West 7.7 km/h 25.9 km/h 69 % 0 mm
15:17 -8.2 °C -11.8 °C 34212.1 hPa South 15.6 km/h 33.6 km/h 66 % 0 mm
15:22 -8 °C -11.4 °C 34212.1 hPa SW 5.1 km/h 33.6 km/h 67 % 0 mm
15:27 -8.1 °C -11.8 °C 34212.1 hPa WSW 2.6 km/h 33.6 km/h 65 % 0 mm
15:32 -8.2 °C -11.7 °C 34212.1 hPa WSW 10.3 km/h 20.8 km/h 67 % 0 mm
15:37 -8.3 °C -11.8 °C 34198.6 hPa SW 10.3 km/h 18.2 km/h 66 % 0 mm
15:42 -8.3 °C -11.9 °C 34198.6 hPa SW 10.3 km/h 33.6 km/h 66 % 0 mm
15:47 -8.1 °C -11.5 °C 34198.6 hPa WNW 7.7 km/h 33.6 km/h 67 % 0 mm
15:52 -7.9 °C -12.1 °C 34198.6 hPa West 15.6 km/h 33.6 km/h 62 % 0 mm
15:57 -7.9 °C -11.9 °C 34198.6 hPa WSW 20.8 km/h 36.2 km/h 63 % 0 mm
16:02 -7.9 °C -12.1 °C 34198.6 hPa WSW 18.2 km/h 36.2 km/h 62 % 0 mm
16:07 -8.3 °C -12.3 °C 34198.6 hPa ESE 12.9 km/h 36.2 km/h 63 % 0 mm
16:12 -8.7 °C -12.3 °C 34198.6 hPa SW 15.6 km/h 31.1 km/h 65 % 0 mm
16:17 -8.8 °C -12.2 °C 34198.6 hPa SW 5.1 km/h 31.1 km/h 67 % 0 mm
16:22 -8.7 °C -11.9 °C 34198.6 hPa SW 2.6 km/h 31.1 km/h 69 % 0 mm
16:27 -8.8 °C -11.8 °C 34198.6 hPa West 7.7 km/h 25.9 km/h 70 % 0 mm
16:32 -8.8 °C -11.8 °C 34198.6 hPa SSW 12.9 km/h 23.3 km/h 70 % 0 mm
16:37 -8.8 °C -12.1 °C 34198.6 hPa WSW 10.3 km/h 25.9 km/h 68 % 0 mm
16:42 -8.9 °C -12.1 °C 34198.6 hPa WSW 7.7 km/h 25.9 km/h 69 % 0 mm
16:52 -9.2 °C -12.2 °C 34188.4 hPa SW 12.9 km/h 20.8 km/h 70 % 0 mm
16:57 -9.3 °C -12.2 °C 34188.4 hPa SW 10.3 km/h 20.8 km/h 71 % 0 mm
17:02 -9.3 °C -12.2 °C 34188.4 hPa WSW 12.9 km/h 20.8 km/h 71 % 0 mm
17:07 -9.4 °C -12.3 °C 34188.4 hPa WSW 2.6 km/h 20.8 km/h 71 % 0 mm
17:12 -9.3 °C -11.9 °C 34178.3 hPa WSW 7.7 km/h 18.2 km/h 74 % 0 mm
17:17 -9.2 °C -12 °C 34178.3 hPa SW 5.1 km/h 18.2 km/h 72 % 0 mm
17:22 -8.8 °C -11.8 °C 34178.3 hPa SSW 2.6 km/h 18.2 km/h 71 % 0 mm
17:27 -8.8 °C -12 °C 34178.3 hPa WSW 7.7 km/h 31.1 km/h 69 % 0 mm
17:32 -9 °C -11.9 °C 34178.3 hPa SW 10.3 km/h 31.1 km/h 71 % 0 mm
17:42 -9.2 °C -11.9 °C 34164.7 hPa WSW 7.7 km/h 20.8 km/h 72 % 0 mm
17:47 -9.2 °C -11.9 °C 34164.7 hPa South 10.3 km/h 20.8 km/h 73 % 0 mm
17:52 -9.3 °C -11.9 °C 34164.7 hPa SW 7.7 km/h 20.8 km/h 73 % 0 mm
17:57 -9.3 °C -11.9 °C 34164.7 hPa South 7.7 km/h 23.3 km/h 73 % 0 mm
18:02 -9.2 °C -11.9 °C 34154.6 hPa South 2.6 km/h 23.3 km/h 73 % 0 mm
18:12 -9.1 °C -11.9 °C 34154.6 hPa South 2.6 km/h 23.3 km/h 72 % 0 mm
18:17 -9.1 °C -12 °C 34144.4 hPa West 5.1 km/h 23.3 km/h 71 % 0 mm
18:22 -9.1 °C -11.8 °C 34144.4 hPa WSW 10.3 km/h 23.3 km/h 73 % 0 mm
18:32 -9.3 °C -11.9 °C 34144.4 hPa WSW 12.9 km/h 23.3 km/h 73 % 0 mm
18:37 -9.3 °C -12.1 °C 34144.4 hPa SW 5.1 km/h 23.3 km/h 72 % 0 mm
18:42 -9.3 °C -11.9 °C 34144.4 hPa SW 10.3 km/h 23.3 km/h 73 % 0 mm
18:47 -9.4 °C -11.7 °C 34144.4 hPa WSW 7.7 km/h 23.3 km/h 76 % 0 mm
18:52 -9.5 °C -11.7 °C 34144.4 hPa SW 5.1 km/h 23.3 km/h 77 % 0 mm
19:02 -9.9 °C -11.6 °C 34144.4 hPa SW 5.1 km/h 25.9 km/h 82 % 0 mm
19:07 -10.1 °C -11.6 °C 34144.4 hPa WSW 5.1 km/h 25.9 km/h 84 % 7.62 mm
19:12 -10.2 °C -11.5 °C 34144.4 hPa SW 7.7 km/h 18.2 km/h 86 % 12.7 mm
19:22 -10.4 °C -11.4 °C 34144.4 hPa WSW 10.3 km/h 18.2 km/h 89 % 20.32 mm
19:27 -10.6 °C -11.4 °C 34144.4 hPa SSW 7.7 km/h 25.9 km/h 90 % 33.02 mm
19:32 -10.7 °C -11.4 °C 34144.4 hPa West 10.3 km/h 25.9 km/h 91 % 38.1 mm
19:37 -10.7 °C -11.5 °C 34144.4 hPa WSW 5.1 km/h 18.2 km/h 91 % 45.72 mm
19:42 -10.8 °C -11.5 °C 34144.4 hPa WSW 15.6 km/h 28.5 km/h 92 % 50.8 mm
19:52 -10.8 °C -11.5 °C 34144.4 hPa WSW 2.6 km/h 28.5 km/h 92 % 58.42 mm
19:57 -10.8 °C -11.4 °C 34144.4 hPa WSW 12.9 km/h 25.9 km/h 93 % 63.5 mm
20:02 -10.8 °C -11.6 °C 34144.4 hPa WSW 2.6 km/h 28.5 km/h 92 % 63.5 mm
20:12 -10.9 °C -11.6 °C 34154.6 hPa SW 2.6 km/h 28.5 km/h 93 % 58.42 mm
20:17 -10.9 °C -11.6 °C 34144.4 hPa SW 7.7 km/h 20.8 km/h 93 % 50.8 mm
20:22 -11 °C -11.6 °C 34144.4 hPa SW 2.6 km/h 20.8 km/h 93 % 58.42 mm
20:32 -10.9 °C -11.6 °C 34144.4 hPa Calm   18.2 km/h 93 % 50.8 mm
20:37 -11 °C -11.6 °C 34144.4 hPa Calm   18.2 km/h 93 % 45.72 mm
20:42 -11.1 °C -11.7 °C 34144.4 hPa WSW 10.3 km/h 18.2 km/h 93 % 38.1 mm
20:52 -11.2 °C -11.8 °C 34144.4 hPa SW 7.7 km/h 15.6 km/h 93 % 25.4 mm
20:57 -11.3 °C -11.9 °C 34144.4 hPa SW 2.6 km/h 15.6 km/h 93 % 25.4 mm
21:02 -11.3 °C -11.9 °C 34144.4 hPa SW 2.6 km/h 15.6 km/h 93 % 25.4 mm
21:12 -11.4 °C -12.1 °C 34144.4 hPa WSW 5.1 km/h 18.2 km/h 93 % 25.4 mm
21:17 -11.4 °C -12.1 °C 34144.4 hPa Calm   18.2 km/h 93 % 12.7 mm
21:22 -11.5 °C -12 °C 34154.6 hPa SW 5.1 km/h 15.6 km/h 94 % 7.62 mm
21:27 -11.5 °C -12 °C 34154.6 hPa Calm   15.6 km/h 94 % 0 mm
21:37 -11.4 °C -11.9 °C 34164.7 hPa SW 10.3 km/h 15.6 km/h 94 % 0 mm
21:42 -11.4 °C -11.9 °C 34164.7 hPa Calm   15.6 km/h 94 % 0 mm
21:47 -11.4 °C -11.9 °C 34164.7 hPa West 5.1 km/h 15.6 km/h 94 % 0 mm
21:52 -11.4 °C -12.1 °C 34164.7 hPa Calm   12.9 km/h 93 % 0 mm
22:02 -11.4 °C -11.9 °C 34178.3 hPa SW 5.1 km/h 12.9 km/h 94 % 0 mm
22:12 -11.4 °C -12.1 °C 34178.3 hPa Calm   12.9 km/h 93 % 0 mm
Meteo18
Compliments of Weather Underground - 4 mb

Script developed by  Jim McMurry - jmcmurry@mwt.net Adapted for the template by  Wim van der Kuil - Leuven-Template.eu

You find our weather info also at:

European Weather Network

Weather Underground

Equipment we use:

Weather-station
Davis Vue

Weather-program
Meteobridge

Weather-server
Raspberry PI 2 B+

Provider
1 and 1

Davis Vue

Meteobridge

Raspberry PI 2 B+

1 and 1